Hauptseite
METAR-TAF:

METAR-TAF

Flughäfen :

Flughafen Rarotonga

Rarotonga, Cookinseln

Breite: 21-12S, Länge: 159-49W, Höhe: 7 m

Beobachtung

Neuester Wetterbericht von vor 33 Minuten, um 19:00 UTC
Wind 11 kt aus Ost
Temperatur 24°C
Luftfeuchtigkeit 61%
Luftdruck 1016 hPa
Sichtweite 10 km oder mehr
Aufgelockert bewölkt in der Höhe von 2500 ft
Durchbrochene Bewölkung in der Höhe von 4500 ft

METAR: NCRG 231900Z 10011KT 9999 SCT025 BKN045 24/16 Q1016

Zeit: 09:33 (19:33 UTC)

Prognose

Neuester Wetterbericht von vor 2 Stunden und 18 Minuten, um 17:15 UTC
Gültige Prognose vom 23 um 18 UTC bis 24 um 18 UTC
Wind 12 kt aus Ost/Südost
Sichtweite 10 km oder mehr
Leicht bewölkt in der Höhe von 2000 ft
Aufgelockert bewölkt in der Höhe von 4000 ft
Durchbrochene Bewölkung in der Höhe von 10000 ft

TAF: NCRG 231715Z 2318/2418 11012KT 9999 FEW020 SCT040 BKN100

Wetterbeobachtungen und Prognosen von mehr als 4000 Flughäfen (METAR und TAF Bericht).

Die verfügbaren Stationen werden durch gelbe und rote Markierungen auf der Karte dargestellt.

Führen Sie die Maus auf sie, um den Namen der Station zu sehen.

Darauf klicken, um die Beobachtung von Wetterbeobachtungen und Prognosen zu sehen.

Um die Karte zu ändern : klicken Sie auf den grünen Tasten mit einem schwarzen Kreuz Zum Vergrößern, auf den grünen Button mit einem Gedankenstrich zu verkleinern, oder auf die grünen Pfeile für benachbarte Karten.


METAR-TAF: